sensor_id;sensor_type;location;lat;lon;timestamp;pressure;altitude;pressure_sealevel;temperature;humidity
14089;BME280;7120;52.890;6.040;2023-03-01T00:02:06;103235.94;;;0.53;88.05
14089;BME280;7120;52.890;6.040;2023-03-01T00:04:32;103228.94;;;0.44;89.02
14089;BME280;7120;52.890;6.040;2023-03-01T00:06:57;103232.50;;;0.28;90.06
14089;BME280;7120;52.890;6.040;2023-03-01T00:09:23;103225.97;;;0.31;91.70
14089;BME280;7120;52.890;6.040;2023-03-01T00:11:48;103230.69;;;0.29;91.01
14089;BME280;7120;52.890;6.040;2023-03-01T00:14:14;103231.94;;;0.10;91.04
14089;BME280;7120;52.890;6.040;2023-03-01T00:16:42;103229.72;;;0.21;90.52
14089;BME280;7120;52.890;6.040;2023-03-01T00:19:14;103227.00;;;0.21;90.42
14089;BME280;7120;52.890;6.040;2023-03-01T00:21:40;103228.38;;;0.17;89.81
14089;BME280;7120;52.890;6.040;2023-03-01T00:24:05;103223.63;;;0.19;89.88
14089;BME280;7120;52.890;6.040;2023-03-01T00:26:31;103213.28;;;0.08;90.49
14089;BME280;7120;52.890;6.040;2023-03-01T00:28:57;103210.63;;;0.00;91.04
14089;BME280;7120;52.890;6.040;2023-03-01T00:31:26;103216.66;;;0.02;91.86
14089;BME280;7120;52.890;6.040;2023-03-01T00:33:53;103210.59;;;0.08;91.21
14089;BME280;7120;52.890;6.040;2023-03-01T00:36:22;103206.91;;;0.01;91.60
14089;BME280;7120;52.890;6.040;2023-03-01T00:38:48;103192.19;;;-0.19;91.39
14089;BME280;7120;52.890;6.040;2023-03-01T00:41:16;103194.34;;;-0.07;91.64
14089;BME280;7120;52.890;6.040;2023-03-01T00:43:42;103189.13;;;-0.16;91.81
14089;BME280;7120;52.890;6.040;2023-03-01T00:46:10;103199.47;;;-0.52;93.50
14089;BME280;7120;52.890;6.040;2023-03-01T00:48:36;103201.28;;;-0.45;94.49
14089;BME280;7120;52.890;6.040;2023-03-01T00:51:13;103204.47;;;-0.33;94.73
14089;BME280;7120;52.890;6.040;2023-03-01T00:53:39;103197.88;;;-0.22;93.95
14089;BME280;7120;52.890;6.040;2023-03-01T00:56:06;103204.81;;;-0.44;94.33
14089;BME280;7120;52.890;6.040;2023-03-01T00:58:32;103201.97;;;-0.35;94.43
14089;BME280;7120;52.890;6.040;2023-03-01T01:00:57;103199.91;;;-0.24;93.18
14089;BME280;7120;52.890;6.040;2023-03-01T01:03:23;103199.09;;;-0.33;91.61
14089;BME280;7120;52.890;6.040;2023-03-01T01:05:51;103208.66;;;-0.31;91.26
14089;BME280;7120;52.890;6.040;2023-03-01T01:08:17;103202.13;;;-0.36;90.60
14089;BME280;7120;52.890;6.040;2023-03-01T01:10:44;103200.25;;;-0.36;90.28
14089;BME280;7120;52.890;6.040;2023-03-01T01:13:09;103194.06;;;-0.36;90.13
14089;BME280;7120;52.890;6.040;2023-03-01T01:15:34;103184.00;;;-0.42;89.96
14089;BME280;7120;52.890;6.040;2023-03-01T01:18:00;103192.56;;;-0.39;90.04
14089;BME280;7120;52.890;6.040;2023-03-01T01:20:25;103198.28;;;-0.50;90.28
14089;BME280;7120;52.890;6.040;2023-03-01T01:22:51;103185.84;;;-0.51;90.24
14089;BME280;7120;52.890;6.040;2023-03-01T01:25:17;103185.16;;;-0.37;90.24
14089;BME280;7120;52.890;6.040;2023-03-01T01:27:42;103185.69;;;-0.41;90.05
14089;BME280;7120;52.890;6.040;2023-03-01T01:30:08;103184.84;;;-0.58;89.89
14089;BME280;7120;52.890;6.040;2023-03-01T01:32:33;103172.09;;;-0.64;90.07
14089;BME280;7120;52.890;6.040;2023-03-01T01:34:59;103181.81;;;-0.47;89.74
14089;BME280;7120;52.890;6.040;2023-03-01T01:37:24;103169.22;;;-0.46;89.92
14089;BME280;7120;52.890;6.040;2023-03-01T01:39:57;103173.09;;;-0.57;89.99
14089;BME280;7120;52.890;6.040;2023-03-01T01:42:23;103167.41;;;-0.78;89.36
14089;BME280;7120;52.890;6.040;2023-03-01T01:45:28;103164.41;;;-0.84;89.58
14089;BME280;7120;52.890;6.040;2023-03-01T01:47:56;103163.91;;;-0.95;89.98
14089;BME280;7120;52.890;6.040;2023-03-01T01:50:22;103152.16;;;-0.94;90.40
14089;BME280;7120;52.890;6.040;2023-03-01T01:52:50;103155.16;;;-0.81;89.31
14089;BME280;7120;52.890;6.040;2023-03-01T01:55:20;103152.81;;;-0.76;90.04
14089;BME280;7120;52.890;6.040;2023-03-01T01:58:02;103148.59;;;-0.78;90.88
14089;BME280;7120;52.890;6.040;2023-03-01T02:00:29;103131.84;;;-1.05;92.93
14089;BME280;7120;52.890;6.040;2023-03-01T02:03:02;103133.53;;;-0.96;93.33
14089;BME280;7120;52.890;6.040;2023-03-01T02:05:38;103150.16;;;-0.84;93.60
14089;BME280;7120;52.890;6.040;2023-03-01T02:08:06;103146.97;;;-1.12;94.58
14089;BME280;7120;52.890;6.040;2023-03-01T02:10:34;103146.94;;;-1.28;95.78
14089;BME280;7120;52.890;6.040;2023-03-01T02:13:01;103146.94;;;-0.96;96.39
14089;BME280;7120;52.890;6.040;2023-03-01T02:15:31;103142.59;;;-0.97;96.90
14089;BME280;7120;52.890;6.040;2023-03-01T02:17:57;103142.91;;;-0.84;96.93
14089;BME280;7120;52.890;6.040;2023-03-01T02:20:40;103146.06;;;-0.72;96.93
14089;BME280;7120;52.890;6.040;2023-03-01T02:23:11;103144.94;;;-0.77;96.21
14089;BME280;7120;52.890;6.040;2023-03-01T02:28:25;103138.53;;;-0.68;95.12
14089;BME280;7120;52.890;6.040;2023-03-01T02:30:50;103132.66;;;-0.80;94.70
14089;BME280;7120;52.890;6.040;2023-03-01T02:33:38;103132.47;;;-0.78;95.00
14089;BME280;7120;52.890;6.040;2023-03-01T02:36:08;103124.25;;;-0.85;94.80
14089;BME280;7120;52.890;6.040;2023-03-01T02:38:34;103112.31;;;-0.66;94.36
14089;BME280;7120;52.890;6.040;2023-03-01T02:41:00;103115.69;;;-0.72;94.30
14089;BME280;7120;52.890;6.040;2023-03-01T02:43:30;103117.72;;;-0.74;94.20
14089;BME280;7120;52.890;6.040;2023-03-01T02:46:01;103107.63;;;-0.72;94.04
14089;BME280;7120;52.890;6.040;2023-03-01T02:48:39;103106.78;;;-0.65;93.25
14089;BME280;7120;52.890;6.040;2023-03-01T02:56:18;103102.88;;;-0.46;93.22
14089;BME280;7120;52.890;6.040;2023-03-01T02:58:44;103100.16;;;-0.38;91.86
14089;BME280;7120;52.890;6.040;2023-03-01T03:01:17;103092.94;;;-0.45;92.26
14089;BME280;7120;52.890;6.040;2023-03-01T03:03:42;103092.28;;;-0.47;92.22
14089;BME280;7120;52.890;6.040;2023-03-01T03:06:08;103093.47;;;-0.50;91.87
14089;BME280;7120;52.890;6.040;2023-03-01T03:08:34;103089.94;;;-0.50;91.67
14089;BME280;7120;52.890;6.040;2023-03-01T03:10:59;103095.81;;;-0.47;91.69
14089;BME280;7120;52.890;6.040;2023-03-01T03:13:25;103093.13;;;-0.47;91.28
14089;BME280;7120;52.890;6.040;2023-03-01T03:15:54;103089.47;;;-0.54;91.47
14089;BME280;7120;52.890;6.040;2023-03-01T03:18:19;103090.09;;;-0.44;91.88
14089;BME280;7120;52.890;6.040;2023-03-01T03:20:45;103091.75;;;-0.43;91.66
14089;BME280;7120;52.890;6.040;2023-03-01T03:23:12;103096.81;;;-0.40;91.79
14089;BME280;7120;52.890;6.040;2023-03-01T03:25:37;103093.47;;;-0.42;92.11
14089;BME280;7120;52.890;6.040;2023-03-01T03:28:04;103084.38;;;-0.41;92.02
14089;BME280;7120;52.890;6.040;2023-03-01T03:30:36;103093.09;;;-0.39;92.04
14089;BME280;7120;52.890;6.040;2023-03-01T03:33:05;103095.81;;;-0.47;92.32
14089;BME280;7120;52.890;6.040;2023-03-01T03:35:39;103091.94;;;-0.44;91.63
14089;BME280;7120;52.890;6.040;2023-03-01T03:38:07;103080.91;;;-0.66;92.22
14089;BME280;7120;52.890;6.040;2023-03-01T03:40:41;103080.56;;;-0.54;92.24
14089;BME280;7120;52.890;6.040;2023-03-01T03:43:09;103076.56;;;-0.67;91.92
14089;BME280;7120;52.890;6.040;2023-03-01T03:45:36;103074.38;;;-0.63;91.25
14089;BME280;7120;52.890;6.040;2023-03-01T03:48:02;103075.06;;;-0.69;92.36
14089;BME280;7120;52.890;6.040;2023-03-01T03:50:28;103075.72;;;-0.67;92.61
14089;BME280;7120;52.890;6.040;2023-03-01T03:52:54;103081.94;;;-0.67;92.07
14089;BME280;7120;52.890;6.040;2023-03-01T03:55:20;103085.66;;;-0.76;92.98
14089;BME280;7120;52.890;6.040;2023-03-01T03:57:47;103079.66;;;-1.02;93.38
14089;BME280;7120;52.890;6.040;2023-03-01T04:00:18;103077.63;;;-1.08;94.32
14089;BME280;7120;52.890;6.040;2023-03-01T04:02:45;103083.97;;;-0.85;93.75
14089;BME280;7120;52.890;6.040;2023-03-01T04:05:12;103089.19;;;-0.92;93.16
14089;BME280;7120;52.890;6.040;2023-03-01T04:07:38;103090.50;;;-0.71;91.83
14089;BME280;7120;52.890;6.040;2023-03-01T04:10:05;103076.75;;;-0.76;91.05
14089;BME280;7120;52.890;6.040;2023-03-01T04:12:32;103085.03;;;-1.11;91.61
14089;BME280;7120;52.890;6.040;2023-03-01T04:14:59;103088.41;;;-1.25;92.67
14089;BME280;7120;52.890;6.040;2023-03-01T04:17:25;103078.16;;;-1.21;92.51
14089;BME280;7120;52.890;6.040;2023-03-01T04:19:50;103079.16;;;-1.22;93.03
14089;BME280;7120;52.890;6.040;2023-03-01T04:22:15;103079.16;;;-1.14;92.46
14089;BME280;7120;52.890;6.040;2023-03-01T04:24:42;103078.16;;;-1.21;91.63
14089;BME280;7120;52.890;6.040;2023-03-01T04:27:09;103074.13;;;-1.25;91.66
14089;BME280;7120;52.890;6.040;2023-03-01T04:29:34;103070.78;;;-1.35;91.94
14089;BME280;7120;52.890;6.040;2023-03-01T04:31:59;103074.78;;;-1.56;91.75
14089;BME280;7120;52.890;6.040;2023-03-01T04:34:25;103065.53;;;-1.86;92.97
14089;BME280;7120;52.890;6.040;2023-03-01T04:36:52;103073.81;;;-1.55;93.00
14089;BME280;7120;52.890;6.040;2023-03-01T04:39:18;103066.41;;;-1.53;92.96
14089;BME280;7120;52.890;6.040;2023-03-01T04:41:43;103070.78;;;-1.68;92.37
14089;BME280;7120;52.890;6.040;2023-03-01T04:44:09;103069.91;;;-1.77;93.69
14089;BME280;7120;52.890;6.040;2023-03-01T04:46:34;103067.75;;;-1.57;92.59
14089;BME280;7120;52.890;6.040;2023-03-01T04:49:01;103071.78;;;-1.53;93.50
14089;BME280;7120;52.890;6.040;2023-03-01T04:51:26;103069.75;;;-1.67;93.08
14089;BME280;7120;52.890;6.040;2023-03-01T04:53:52;103065.41;;;-1.60;92.85
14089;BME280;7120;52.890;6.040;2023-03-01T04:56:17;103056.69;;;-1.62;93.08
14089;BME280;7120;52.890;6.040;2023-03-01T04:58:43;103055.84;;;-1.62;91.78
14089;BME280;7120;52.890;6.040;2023-03-01T05:01:14;103060.41;;;-1.55;92.23
14089;BME280;7120;52.890;6.040;2023-03-01T05:03:42;103040.56;;;-1.70;92.13
14089;BME280;7120;52.890;6.040;2023-03-01T05:06:08;103049.81;;;-1.64;92.62
14089;BME280;7120;52.890;6.040;2023-03-01T05:08:34;103033.72;;;-1.81;92.21
14089;BME280;7120;52.890;6.040;2023-03-01T05:11:02;103047.66;;;-1.69;92.19
14089;BME280;7120;52.890;6.040;2023-03-01T05:13:28;103044.72;;;-2.00;92.20
14089;BME280;7120;52.890;6.040;2023-03-01T05:15:56;103043.88;;;-2.09;93.19
14089;BME280;7120;52.890;6.040;2023-03-01T05:18:23;103030.94;;;-2.13;93.21
14089;BME280;7120;52.890;6.040;2023-03-01T05:20:51;103031.41;;;-2.26;93.54
14089;BME280;7120;52.890;6.040;2023-03-01T05:23:17;103030.38;;;-2.41;93.93
14089;BME280;7120;52.890;6.040;2023-03-01T05:25:43;103013.97;;;-2.46;94.14
14089;BME280;7120;52.890;6.040;2023-03-01T05:28:12;103012.63;;;-2.42;94.01
14089;BME280;7120;52.890;6.040;2023-03-01T05:30:37;103010.91;;;-2.52;94.18
14089;BME280;7120;52.890;6.040;2023-03-01T05:33:07;103012.75;;;-2.52;93.87
14089;BME280;7120;52.890;6.040;2023-03-01T05:35:39;103009.25;;;-2.53;93.14
14089;BME280;7120;52.890;6.040;2023-03-01T05:38:04;103011.75;;;-2.51;92.10
14089;BME280;7120;52.890;6.040;2023-03-01T05:40:29;102995.88;;;-2.44;91.50
14089;BME280;7120;52.890;6.040;2023-03-01T05:42:56;103007.28;;;-2.34;90.17
14089;BME280;7120;52.890;6.040;2023-03-01T05:45:23;102998.22;;;-2.33;89.79
14089;BME280;7120;52.890;6.040;2023-03-01T05:47:49;102988.88;;;-2.29;90.18
14089;BME280;7120;52.890;6.040;2023-03-01T05:50:20;102985.63;;;-2.49;90.27
14089;BME280;7120;52.890;6.040;2023-03-01T05:52:48;102980.25;;;-2.57;91.63
14089;BME280;7120;52.890;6.040;2023-03-01T05:55:15;102994.69;;;-2.50;90.99
14089;BME280;7120;52.890;6.040;2023-03-01T05:57:41;102988.97;;;-2.55;91.69
14089;BME280;7120;52.890;6.040;2023-03-01T06:00:08;102982.47;;;-2.53;91.71
14089;BME280;7120;52.890;6.040;2023-03-01T06:02:33;102987.94;;;-2.62;91.49
14089;BME280;7120;52.890;6.040;2023-03-01T06:04:58;102989.41;;;-2.68;91.17
14089;BME280;7120;52.890;6.040;2023-03-01T06:07:24;102982.53;;;-2.70;90.54
14089;BME280;7120;52.890;6.040;2023-03-01T06:09:49;102995.09;;;-2.71;90.44
14089;BME280;7120;52.890;6.040;2023-03-01T06:12:14;102977.97;;;-2.86;91.10
14089;BME280;7120;52.890;6.040;2023-03-01T06:14:40;102989.31;;;-2.92;91.59
14089;BME280;7120;52.890;6.040;2023-03-01T06:17:05;102994.38;;;-3.15;91.52
14089;BME280;7120;52.890;6.040;2023-03-01T06:19:31;102976.34;;;-3.05;92.35
14089;BME280;7120;52.890;6.040;2023-03-01T06:21:56;102985.59;;;-3.25;91.39
14089;BME280;7120;52.890;6.040;2023-03-01T06:24:21;102990.81;;;-3.24;91.71
14089;BME280;7120;52.890;6.040;2023-03-01T06:26:47;102983.75;;;-2.99;92.01
14089;BME280;7120;52.890;6.040;2023-03-01T06:29:12;102992.47;;;-2.97;91.50
14089;BME280;7120;52.890;6.040;2023-03-01T06:31:37;103002.13;;;-3.04;91.04
14089;BME280;7120;52.890;6.040;2023-03-01T06:34:03;102995.31;;;-2.98;91.59
14089;BME280;7120;52.890;6.040;2023-03-01T06:36:28;103003.88;;;-2.95;92.09
14089;BME280;7120;52.890;6.040;2023-03-01T06:38:53;102994.84;;;-2.94;92.01
14089;BME280;7120;52.890;6.040;2023-03-01T06:41:19;103001.59;;;-2.82;91.74
14089;BME280;7120;52.890;6.040;2023-03-01T06:43:44;102999.97;;;-2.74;91.10
14089;BME280;7120;52.890;6.040;2023-03-01T06:46:10;103006.84;;;-2.64;90.96
14089;BME280;7120;52.890;6.040;2023-03-01T06:48:35;103006.69;;;-2.54;90.68
14089;BME280;7120;52.890;6.040;2023-03-01T06:51:01;103019.22;;;-2.63;90.16
14089;BME280;7120;52.890;6.040;2023-03-01T06:53:28;103015.06;;;-2.57;90.12
14089;BME280;7120;52.890;6.040;2023-03-01T06:55:57;103010.91;;;-2.52;90.44
14089;BME280;7120;52.890;6.040;2023-03-01T06:58:23;103026.34;;;-2.45;89.90
14089;BME280;7120;52.890;6.040;2023-03-01T07:00:48;103018.56;;;-2.65;89.66
14089;BME280;7120;52.890;6.040;2023-03-01T07:03:14;103018.59;;;-2.57;88.92
14089;BME280;7120;52.890;6.040;2023-03-01T07:05:39;103020.28;;;-2.47;89.27
14089;BME280;7120;52.890;6.040;2023-03-01T07:08:05;103021.22;;;-2.31;88.63
14089;BME280;7120;52.890;6.040;2023-03-01T07:10:30;103022.72;;;-2.28;87.78
14089;BME280;7120;52.890;6.040;2023-03-01T07:12:56;103036.28;;;-2.30;87.06
14089;BME280;7120;52.890;6.040;2023-03-01T07:15:22;103039.84;;;-2.13;87.88
14089;BME280;7120;52.890;6.040;2023-03-01T07:17:48;103038.69;;;-2.02;88.93
14089;BME280;7120;52.890;6.040;2023-03-01T07:20:16;103040.19;;;-2.00;90.27
14089;BME280;7120;52.890;6.040;2023-03-01T07:22:41;103036.69;;;-1.92;91.70
14089;BME280;7120;52.890;6.040;2023-03-01T07:25:08;103029.66;;;-1.85;91.34
14089;BME280;7120;52.890;6.040;2023-03-01T07:27:33;103032.69;;;-1.72;88.85
14089;BME280;7120;52.890;6.040;2023-03-01T07:29:59;103039.72;;;-1.79;88.64
14089;BME280;7120;52.890;6.040;2023-03-01T07:32:24;103029.53;;;-1.75;89.22
14089;BME280;7120;52.890;6.040;2023-03-01T07:34:50;103041.75;;;-1.56;88.55
14089;BME280;7120;52.890;6.040;2023-03-01T07:37:16;103014.75;;;-1.39;88.82
14089;BME280;7120;52.890;6.040;2023-03-01T07:39:42;103037.41;;;-1.25;90.08
14089;BME280;7120;52.890;6.040;2023-03-01T07:42:07;103040.03;;;-1.00;89.93
14089;BME280;7120;52.890;6.040;2023-03-01T07:44:33;103022.34;;;-0.78;88.33
14089;BME280;7120;52.890;6.040;2023-03-01T07:47:00;103034.06;;;-0.71;87.44
14089;BME280;7120;52.890;6.040;2023-03-01T07:49:25;103035.75;;;-0.62;87.57
14089;BME280;7120;52.890;6.040;2023-03-01T07:51:52;103037.38;;;-0.53;87.82
14089;BME280;7120;52.890;6.040;2023-03-01T07:54:17;103024.09;;;-0.46;87.66
14089;BME280;7120;52.890;6.040;2023-03-01T07:56:44;103028.72;;;-0.32;87.46
14089;BME280;7120;52.890;6.040;2023-03-01T07:59:09;103027.38;;;-0.36;87.35
14089;BME280;7120;52.890;6.040;2023-03-01T08:01:34;103015.50;;;-0.42;87.85
14089;BME280;7120;52.890;6.040;2023-03-01T08:04:00;103032.84;;;-0.13;87.30
14089;BME280;7120;52.890;6.040;2023-03-01T08:06:25;103039.50;;;0.22;86.88
14089;BME280;7120;52.890;6.040;2023-03-01T08:08:50;103033.34;;;0.36;86.48
14089;BME280;7120;52.890;6.040;2023-03-01T08:11:16;103025.44;;;0.58;86.04
14089;BME280;7120;52.890;6.040;2023-03-01T08:13:43;103033.72;;;0.71;85.98
14089;BME280;7120;52.890;6.040;2023-03-01T08:16:13;103034.28;;;0.81;86.09
14089;BME280;7120;52.890;6.040;2023-03-01T08:18:39;103034.94;;;0.98;85.94
14089;BME280;7120;52.890;6.040;2023-03-01T08:21:10;103034.06;;;1.20;85.21
14089;BME280;7120;52.890;6.040;2023-03-01T08:23:36;103021.41;;;1.35;85.86
14089;BME280;7120;52.890;6.040;2023-03-01T08:26:15;103029.78;;;1.55;85.87
14089;BME280;7120;52.890;6.040;2023-03-01T08:28:42;103024.38;;;1.55;85.91
14089;BME280;7120;52.890;6.040;2023-03-01T08:31:15;103025.44;;;1.76;85.90
14089;BME280;7120;52.890;6.040;2023-03-01T08:33:41;103020.97;;;2.04;85.47
14089;BME280;7120;52.890;6.040;2023-03-01T08:36:06;103015.41;;;2.27;85.34
14089;BME280;7120;52.890;6.040;2023-03-01T08:38:33;103027.03;;;2.49;85.03
14089;BME280;7120;52.890;6.040;2023-03-01T08:41:02;103021.97;;;2.67;84.77
14089;BME280;7120;52.890;6.040;2023-03-01T08:43:28;103015.78;;;3.01;83.55
14089;BME280;7120;52.890;6.040;2023-03-01T08:45:54;103018.16;;;3.46;82.54
14089;BME280;7120;52.890;6.040;2023-03-01T08:48:19;103017.94;;;4.15;82.33
14089;BME280;7120;52.890;6.040;2023-03-01T08:50:44;103025.69;;;4.84;80.30
14089;BME280;7120;52.890;6.040;2023-03-01T08:53:09;103016.88;;;5.29;76.76
14089;BME280;7120;52.890;6.040;2023-03-01T08:55:35;103005.31;;;5.98;73.62
14089;BME280;7120;52.890;6.040;2023-03-01T08:58:00;102995.13;;;5.93;71.73
14089;BME280;7120;52.890;6.040;2023-03-01T09:00:25;103008.91;;;6.23;72.57
14089;BME280;7120;52.890;6.040;2023-03-01T09:02:51;103009.06;;;6.60;72.06
14089;BME280;7120;52.890;6.040;2023-03-01T09:05:16;103009.59;;;6.69;71.31
14089;BME280;7120;52.890;6.040;2023-03-01T09:07:41;103014.97;;;7.19;69.09
14089;BME280;7120;52.890;6.040;2023-03-01T09:10:07;103013.94;;;7.20;69.94
14089;BME280;7120;52.890;6.040;2023-03-01T09:12:33;103006.66;;;7.32;69.29
14089;BME280;7120;52.890;6.040;2023-03-01T09:14:59;103002.41;;;8.03;67.97
14089;BME280;7120;52.890;6.040;2023-03-01T09:17:24;102999.72;;;8.14;66.24
14089;BME280;7120;52.890;6.040;2023-03-01T09:19:49;102994.94;;;7.98;67.25
14089;BME280;7120;52.890;6.040;2023-03-01T09:22:15;102989.31;;;8.53;66.00
14089;BME280;7120;52.890;6.040;2023-03-01T09:24:40;102987.56;;;8.29;65.89
14089;BME280;7120;52.890;6.040;2023-03-01T09:27:06;102991.34;;;7.86;67.31
14089;BME280;7120;52.890;6.040;2023-03-01T09:29:37;102978.59;;;8.10;66.29
14089;BME280;7120;52.890;6.040;2023-03-01T09:32:02;102986.66;;;8.05;64.66
14089;BME280;7120;52.890;6.040;2023-03-01T09:34:28;102977.97;;;6.74;68.32
14089;BME280;7120;52.890;6.040;2023-03-01T09:36:53;102983.78;;;7.21;68.03
14089;BME280;7120;52.890;6.040;2023-03-01T09:39:19;102991.53;;;7.18;68.72
14089;BME280;7120;52.890;6.040;2023-03-01T09:42:00;102982.50;;;8.02;66.50
14089;BME280;7120;52.890;6.040;2023-03-01T09:46:59;102989.63;;;6.81;69.23
14089;BME280;7120;52.890;6.040;2023-03-01T09:49:29;102976.34;;;7.10;68.16
14089;BME280;7120;52.890;6.040;2023-03-01T09:54:44;102972.88;;;7.39;67.16
14089;BME280;7120;52.890;6.040;2023-03-01T09:57:26;102978.13;;;8.43;64.71
14089;BME280;7120;52.890;6.040;2023-03-01T10:04:51;102989.56;;;9.50;61.21
14089;BME280;7120;52.890;6.040;2023-03-01T10:07:44;102985.53;;;10.10;57.67
14089;BME280;7120;52.890;6.040;2023-03-01T10:10:29;102980.44;;;8.27;60.12
14089;BME280;7120;52.890;6.040;2023-03-01T10:12:57;102972.44;;;8.03;61.12
14089;BME280;7120;52.890;6.040;2023-03-01T10:15:32;102983.22;;;7.97;60.20
14089;BME280;7120;52.890;6.040;2023-03-01T10:18:04;102990.47;;;8.15;61.81
14089;BME280;7120;52.890;6.040;2023-03-01T10:20:54;102977.78;;;8.51;60.58
14089;BME280;7120;52.890;6.040;2023-03-01T10:23:23;102979.25;;;8.23;58.90
14089;BME280;7120;52.890;6.040;2023-03-01T10:28:48;102968.53;;;8.40;59.87
14089;BME280;7120;52.890;6.040;2023-03-01T10:31:20;102971.75;;;8.96;58.30
14089;BME280;7120;52.890;6.040;2023-03-01T10:33:47;102980.41;;;8.58;60.68
14089;BME280;7120;52.890;6.040;2023-03-01T10:36:16;102965.19;;;9.20;57.66
14089;BME280;7120;52.890;6.040;2023-03-01T10:38:54;102966.53;;;9.46;56.94
14089;BME280;7120;52.890;6.040;2023-03-01T10:41:25;102964.06;;;8.81;58.60
14089;BME280;7120;52.890;6.040;2023-03-01T10:43:57;102947.34;;;9.29;55.40
14089;BME280;7120;52.890;6.040;2023-03-01T10:46:31;102948.75;;;8.68;57.01
14089;BME280;7120;52.890;6.040;2023-03-01T10:49:19;102952.41;;;8.86;60.01
14089;BME280;7120;52.890;6.040;2023-03-01T10:51:47;102943.13;;;9.10;54.69
14089;BME280;7120;52.890;6.040;2023-03-01T10:54:22;102949.88;;;9.88;53.05
14089;BME280;7120;52.890;6.040;2023-03-01T10:56:50;102946.88;;;9.32;57.93
14089;BME280;7120;52.890;6.040;2023-03-01T10:59:26;102949.56;;;9.44;55.84
14089;BME280;7120;52.890;6.040;2023-03-01T11:02:20;102947.53;;;8.52;57.06
14089;BME280;7120;52.890;6.040;2023-03-01T11:05:00;102943.28;;;8.80;57.65
14089;BME280;7120;52.890;6.040;2023-03-01T11:07:26;102945.63;;;9.52;54.08
14089;BME280;7120;52.890;6.040;2023-03-01T11:09:51;102935.16;;;9.77;54.47
14089;BME280;7120;52.890;6.040;2023-03-01T11:12:17;102941.06;;;9.86;55.89
14089;BME280;7120;52.890;6.040;2023-03-01T11:14:51;102933.50;;;10.72;51.74
14089;BME280;7120;52.890;6.040;2023-03-01T11:17:29;102934.72;;;9.52;52.82
14089;BME280;7120;52.890;6.040;2023-03-01T11:20:01;102928.34;;;9.23;52.71
14089;BME280;7120;52.890;6.040;2023-03-01T11:22:29;102935.06;;;9.44;53.66
14089;BME280;7120;52.890;6.040;2023-03-01T11:24:56;102932.09;;;9.17;55.21
14089;BME280;7120;52.890;6.040;2023-03-01T11:27:35;102934.38;;;9.65;53.78
14089;BME280;7120;52.890;6.040;2023-03-01T11:30:05;102928.72;;;9.83;53.19
14089;BME280;7120;52.890;6.040;2023-03-01T11:32:40;102933.56;;;9.36;52.02
14089;BME280;7120;52.890;6.040;2023-03-01T11:40:27;102895.84;;;9.78;54.09
14089;BME280;7120;52.890;6.040;2023-03-01T11:43:03;102921.38;;;9.27;53.44
14089;BME280;7120;52.890;6.040;2023-03-01T11:51:09;102921.41;;;10.17;50.86
14089;BME280;7120;52.890;6.040;2023-03-01T11:53:58;102923.63;;;9.58;52.06
14089;BME280;7120;52.890;6.040;2023-03-01T11:56:37;102918.66;;;9.72;49.97
14089;BME280;7120;52.890;6.040;2023-03-01T12:04:54;102917.91;;;10.56;51.12
14089;BME280;7120;52.890;6.040;2023-03-01T12:15:47;102901.56;;;9.94;53.08
14089;BME280;7120;52.890;6.040;2023-03-01T12:21:27;102882.19;;;9.78;52.29
14089;BME280;7120;52.890;6.040;2023-03-01T12:27:00;102872.28;;;11.00;48.92
14089;BME280;7120;52.890;6.040;2023-03-01T12:29:46;102866.63;;;11.07;50.65
14089;BME280;7120;52.890;6.040;2023-03-01T12:35:36;102839.16;;;11.23;47.96
14089;BME280;7120;52.890;6.040;2023-03-01T12:41:11;102850.66;;;10.38;52.35
14089;BME280;7120;52.890;6.040;2023-03-01T12:49:36;102833.69;;;11.50;48.11
14089;BME280;7120;52.890;6.040;2023-03-01T12:52:27;102835.13;;;11.85;48.28
14089;BME280;7120;52.890;6.040;2023-03-01T12:54:58;102827.66;;;10.99;47.92
14089;BME280;7120;52.890;6.040;2023-03-01T12:57:32;102833.44;;;11.03;49.61
14089;BME280;7120;52.890;6.040;2023-03-01T13:03:23;102830.72;;;10.42;50.44
14089;BME280;7120;52.890;6.040;2023-03-01T13:51:06;102782.03;;;10.06;51.23
14089;BME280;7120;52.890;6.040;2023-03-01T13:53:39;102784.69;;;10.17;52.08
14089;BME280;7120;52.890;6.040;2023-03-01T13:59:17;102788.78;;;9.64;50.98
14089;BME280;7120;52.890;6.040;2023-03-01T14:01:42;102780.56;;;9.48;51.53
14089;BME280;7120;52.890;6.040;2023-03-01T14:04:37;102774.19;;;8.97;53.33
14089;BME280;7120;52.890;6.040;2023-03-01T14:07:19;102770.00;;;8.77;54.85
14089;BME280;7120;52.890;6.040;2023-03-01T14:09:47;102769.00;;;8.95;56.16
14089;BME280;7120;52.890;6.040;2023-03-01T14:15:20;102765.22;;;8.33;55.55
14089;BME280;7120;52.890;6.040;2023-03-01T14:20:21;102764.38;;;8.44;57.01
14089;BME280;7120;52.890;6.040;2023-03-01T14:22:49;102751.19;;;8.52;55.10
14089;BME280;7120;52.890;6.040;2023-03-01T14:25:33;102736.97;;;8.50;54.64
14089;BME280;7120;52.890;6.040;2023-03-01T14:28:04;102735.38;;;8.66;55.43
14089;BME280;7120;52.890;6.040;2023-03-01T14:30:37;102735.34;;;8.49;56.58
14089;BME280;7120;52.890;6.040;2023-03-01T14:33:05;102728.78;;;8.62;56.73
14089;BME280;7120;52.890;6.040;2023-03-01T14:35:34;102732.28;;;8.74;56.13
14089;BME280;7120;52.890;6.040;2023-03-01T14:38:00;102732.09;;;8.64;57.39
14089;BME280;7120;52.890;6.040;2023-03-01T14:40:32;102715.38;;;8.61;56.86
14089;BME280;7120;52.890;6.040;2023-03-01T14:43:00;102717.44;;;8.53;56.77
14089;BME280;7120;52.890;6.040;2023-03-01T14:45:28;102722.56;;;8.67;58.18
14089;BME280;7120;52.890;6.040;2023-03-01T14:47:59;102722.56;;;8.26;58.30
14089;BME280;7120;52.890;6.040;2023-03-01T14:50:28;102708.59;;;8.11;56.79
14089;BME280;7120;52.890;6.040;2023-03-01T14:52:57;102703.50;;;8.15;58.70
14089;BME280;7120;52.890;6.040;2023-03-01T14:55:31;102698.72;;;8.34;60.51
14089;BME280;7120;52.890;6.040;2023-03-01T14:57:58;102706.19;;;8.38;58.37
14089;BME280;7120;52.890;6.040;2023-03-01T15:00:29;102699.13;;;8.14;58.32
14089;BME280;7120;52.890;6.040;2023-03-01T15:02:56;102690.22;;;8.18;58.80
14089;BME280;7120;52.890;6.040;2023-03-01T15:05:32;102690.09;;;8.25;58.46
14089;BME280;7120;52.890;6.040;2023-03-01T15:08:00;102688.41;;;8.24;58.62
14089;BME280;7120;52.890;6.040;2023-03-01T15:10:34;102675.09;;;7.99;59.06
14089;BME280;7120;52.890;6.040;2023-03-01T15:13:14;102690.84;;;7.97;59.76
14089;BME280;7120;52.890;6.040;2023-03-01T15:15:47;102684.72;;;7.90;58.70